sensor_id;sensor_type;location;lat;lon;timestamp;P1;durP1;ratioP1;P2;durP2;ratioP2
7493;SDS011;3788;49.902;8.590;2022-08-11T00:00:46;2.90;;;2.70;;
7493;SDS011;3788;49.902;8.590;2022-08-11T00:03:13;3.13;;;2.83;;
7493;SDS011;3788;49.902;8.590;2022-08-11T00:05:43;2.10;;;2.00;;
7493;SDS011;3788;49.902;8.590;2022-08-11T00:08:20;2.53;;;2.33;;
7493;SDS011;3788;49.902;8.590;2022-08-11T00:10:50;2.47;;;2.27;;
7493;SDS011;3788;49.902;8.590;2022-08-11T00:13:19;2.57;;;2.37;;
7493;SDS011;3788;49.902;8.590;2022-08-11T00:15:48;2.60;;;2.40;;
7493;SDS011;3788;49.902;8.590;2022-08-11T00:18:15;2.20;;;2.10;;
7493;SDS011;3788;49.902;8.590;2022-08-11T00:20:43;2.30;;;2.20;;
7493;SDS011;3788;49.902;8.590;2022-08-11T00:23:11;2.63;;;2.00;;
7493;SDS011;3788;49.902;8.590;2022-08-11T00:25:41;2.27;;;2.17;;
7493;SDS011;3788;49.902;8.590;2022-08-11T00:28:23;2.47;;;2.27;;
7493;SDS011;3788;49.902;8.590;2022-08-11T00:30:53;2.50;;;2.30;;
7493;SDS011;3788;49.902;8.590;2022-08-11T00:33:22;3.50;;;2.50;;
7493;SDS011;3788;49.902;8.590;2022-08-11T00:35:56;2.27;;;2.13;;
7493;SDS011;3788;49.902;8.590;2022-08-11T00:38:28;2.20;;;2.00;;
7493;SDS011;3788;49.902;8.590;2022-08-11T00:40:58;2.73;;;2.50;;
7493;SDS011;3788;49.902;8.590;2022-08-11T00:43:38;2.37;;;2.27;;
7493;SDS011;3788;49.902;8.590;2022-08-11T00:46:17;2.43;;;2.10;;
7493;SDS011;3788;49.902;8.590;2022-08-11T00:49:01;2.57;;;2.37;;
7493;SDS011;3788;49.902;8.590;2022-08-11T00:51:52;2.50;;;2.30;;
7493;SDS011;3788;49.902;8.590;2022-08-11T00:54:42;3.40;;;2.50;;
7493;SDS011;3788;49.902;8.590;2022-08-11T01:01:07;3.57;;;2.40;;
7493;SDS011;3788;49.902;8.590;2022-08-11T01:03:51;2.60;;;2.23;;
7493;SDS011;3788;49.902;8.590;2022-08-11T01:06:37;2.60;;;2.40;;
7493;SDS011;3788;49.902;8.590;2022-08-11T01:09:27;2.43;;;2.33;;
7493;SDS011;3788;49.902;8.590;2022-08-11T01:12:06;2.63;;;2.43;;
7493;SDS011;3788;49.902;8.590;2022-08-11T01:18:10;2.67;;;2.47;;
7493;SDS011;3788;49.902;8.590;2022-08-11T01:24:08;2.60;;;2.40;;
7493;SDS011;3788;49.902;8.590;2022-08-11T01:27:11;2.83;;;2.63;;
7493;SDS011;3788;49.902;8.590;2022-08-11T01:30:02;2.63;;;2.43;;
7493;SDS011;3788;49.902;8.590;2022-08-11T01:36:13;2.80;;;2.60;;
7493;SDS011;3788;49.902;8.590;2022-08-11T01:42:03;2.43;;;2.23;;
7493;SDS011;3788;49.902;8.590;2022-08-11T01:45:14;2.87;;;2.50;;
7493;SDS011;3788;49.902;8.590;2022-08-11T01:47:48;2.50;;;2.30;;
7493;SDS011;3788;49.902;8.590;2022-08-11T01:50:36;2.70;;;2.50;;
7493;SDS011;3788;49.902;8.590;2022-08-11T01:53:20;2.50;;;2.30;;
7493;SDS011;3788;49.902;8.590;2022-08-11T01:55:58;2.33;;;2.23;;
7493;SDS011;3788;49.902;8.590;2022-08-11T02:05:13;2.60;;;2.40;;
7493;SDS011;3788;49.902;8.590;2022-08-11T02:07:51;4.23;;;2.60;;
7493;SDS011;3788;49.902;8.590;2022-08-11T02:10:25;3.80;;;2.50;;
7493;SDS011;3788;49.902;8.590;2022-08-11T02:13:12;2.40;;;2.20;;
7493;SDS011;3788;49.902;8.590;2022-08-11T02:15:43;2.23;;;2.13;;
7493;SDS011;3788;49.902;8.590;2022-08-11T02:18:15;2.50;;;2.30;;
7493;SDS011;3788;49.902;8.590;2022-08-11T02:20:47;2.80;;;2.60;;
7493;SDS011;3788;49.902;8.590;2022-08-11T02:23:38;2.70;;;2.50;;
7493;SDS011;3788;49.902;8.590;2022-08-11T02:26:17;2.90;;;2.70;;
7493;SDS011;3788;49.902;8.590;2022-08-11T02:28:50;3.30;;;3.10;;
7493;SDS011;3788;49.902;8.590;2022-08-11T02:31:28;3.67;;;3.37;;
7493;SDS011;3788;49.902;8.590;2022-08-11T02:34:23;3.90;;;3.60;;
7493;SDS011;3788;49.902;8.590;2022-08-11T02:39:30;4.50;;;4.10;;
7493;SDS011;3788;49.902;8.590;2022-08-11T02:42:09;4.87;;;4.47;;
7493;SDS011;3788;49.902;8.590;2022-08-11T02:44:53;4.37;;;4.03;;
7493;SDS011;3788;49.902;8.590;2022-08-11T02:47:30;4.47;;;4.07;;
7493;SDS011;3788;49.902;8.590;2022-08-11T02:50:34;4.97;;;4.47;;
7493;SDS011;3788;49.902;8.590;2022-08-11T02:53:06;4.27;;;3.87;;
7493;SDS011;3788;49.902;8.590;2022-08-11T02:55:41;4.70;;;3.93;;
7493;SDS011;3788;49.902;8.590;2022-08-11T02:58:25;3.87;;;3.50;;
7493;SDS011;3788;49.902;8.590;2022-08-11T03:01:02;3.60;;;3.30;;
7493;SDS011;3788;49.902;8.590;2022-08-11T03:03:36;3.70;;;3.40;;
7493;SDS011;3788;49.902;8.590;2022-08-11T03:06:11;3.53;;;3.30;;
7493;SDS011;3788;49.902;8.590;2022-08-11T03:08:52;3.43;;;3.20;;
7493;SDS011;3788;49.902;8.590;2022-08-11T03:11:38;3.33;;;3.03;;
7493;SDS011;3788;49.902;8.590;2022-08-11T03:14:35;3.07;;;2.80;;
7493;SDS011;3788;49.902;8.590;2022-08-11T03:17:46;3.20;;;2.90;;
7493;SDS011;3788;49.902;8.590;2022-08-11T03:20:26;3.27;;;2.90;;
7493;SDS011;3788;49.902;8.590;2022-08-11T03:23:02;3.17;;;2.87;;
7493;SDS011;3788;49.902;8.590;2022-08-11T03:25:37;2.90;;;2.60;;
7493;SDS011;3788;49.902;8.590;2022-08-11T03:28:14;4.13;;;2.90;;
7493;SDS011;3788;49.902;8.590;2022-08-11T03:30:51;3.20;;;2.80;;
7493;SDS011;3788;49.902;8.590;2022-08-11T03:33:23;3.00;;;2.80;;
7493;SDS011;3788;49.902;8.590;2022-08-11T03:36:12;4.10;;;3.30;;
7493;SDS011;3788;49.902;8.590;2022-08-11T03:38:54;3.50;;;3.20;;
7493;SDS011;3788;49.902;8.590;2022-08-11T03:41:31;4.07;;;3.27;;
7493;SDS011;3788;49.902;8.590;2022-08-11T03:44:24;2.67;;;2.47;;
7493;SDS011;3788;49.902;8.590;2022-08-11T03:47:07;2.90;;;2.70;;
7493;SDS011;3788;49.902;8.590;2022-08-11T03:49:57;3.40;;;3.10;;
7493;SDS011;3788;49.902;8.590;2022-08-11T03:52:36;3.20;;;3.00;;
7493;SDS011;3788;49.902;8.590;2022-08-11T03:55:13;3.27;;;2.93;;
7493;SDS011;3788;49.902;8.590;2022-08-11T03:58:09;2.90;;;2.70;;
7493;SDS011;3788;49.902;8.590;2022-08-11T04:01:06;3.90;;;2.87;;
7493;SDS011;3788;49.902;8.590;2022-08-11T04:13:24;3.17;;;2.63;;
7493;SDS011;3788;49.902;8.590;2022-08-11T04:16:15;3.30;;;3.00;;
7493;SDS011;3788;49.902;8.590;2022-08-11T04:19:19;2.93;;;2.73;;
7493;SDS011;3788;49.902;8.590;2022-08-11T04:22:12;2.63;;;2.43;;
7493;SDS011;3788;49.902;8.590;2022-08-11T04:25:10;2.80;;;2.60;;
7493;SDS011;3788;49.902;8.590;2022-08-11T04:28:07;2.80;;;2.60;;
7493;SDS011;3788;49.902;8.590;2022-08-11T04:31:01;2.50;;;2.30;;
7493;SDS011;3788;49.902;8.590;2022-08-11T04:33:48;3.00;;;2.67;;
7493;SDS011;3788;49.902;8.590;2022-08-11T04:36:34;2.90;;;2.70;;
7493;SDS011;3788;49.902;8.590;2022-08-11T04:39:37;3.80;;;2.90;;
7493;SDS011;3788;49.902;8.590;2022-08-11T04:42:26;3.90;;;2.80;;
7493;SDS011;3788;49.902;8.590;2022-08-11T04:48:47;3.20;;;3.00;;
7493;SDS011;3788;49.902;8.590;2022-08-11T04:51:47;3.03;;;2.77;;
7493;SDS011;3788;49.902;8.590;2022-08-11T04:54:57;2.90;;;2.60;;
7493;SDS011;3788;49.902;8.590;2022-08-11T04:57:58;3.30;;;3.00;;
7493;SDS011;3788;49.902;8.590;2022-08-11T05:01:05;3.67;;;2.73;;
7493;SDS011;3788;49.902;8.590;2022-08-11T05:04:10;2.93;;;2.73;;
7493;SDS011;3788;49.902;8.590;2022-08-11T05:07:12;3.07;;;2.87;;
7493;SDS011;3788;49.902;8.590;2022-08-11T05:10:07;3.23;;;2.93;;
7493;SDS011;3788;49.902;8.590;2022-08-11T05:12:54;3.33;;;3.03;;
7493;SDS011;3788;49.902;8.590;2022-08-11T05:15:44;3.87;;;3.00;;
7493;SDS011;3788;49.902;8.590;2022-08-11T05:18:32;2.90;;;2.63;;
7493;SDS011;3788;49.902;8.590;2022-08-11T05:21:17;3.17;;;2.90;;
7493;SDS011;3788;49.902;8.590;2022-08-11T05:24:06;3.10;;;2.73;;
7493;SDS011;3788;49.902;8.590;2022-08-11T05:26:57;2.70;;;2.50;;
7493;SDS011;3788;49.902;8.590;2022-08-11T05:29:46;3.03;;;2.83;;
7493;SDS011;3788;49.902;8.590;2022-08-11T05:32:34;3.50;;;3.10;;
7493;SDS011;3788;49.902;8.590;2022-08-11T05:35:25;2.80;;;2.60;;
7493;SDS011;3788;49.902;8.590;2022-08-11T05:37:56;3.20;;;2.93;;
7493;SDS011;3788;49.902;8.590;2022-08-11T05:40:46;3.33;;;3.03;;
7493;SDS011;3788;49.902;8.590;2022-08-11T05:43:32;3.17;;;2.97;;
7493;SDS011;3788;49.902;8.590;2022-08-11T05:46:23;2.73;;;2.53;;
7493;SDS011;3788;49.902;8.590;2022-08-11T05:49:09;3.20;;;3.00;;
7493;SDS011;3788;49.902;8.590;2022-08-11T05:51:54;3.17;;;2.70;;
7493;SDS011;3788;49.902;8.590;2022-08-11T05:54:39;3.50;;;3.20;;
7493;SDS011;3788;49.902;8.590;2022-08-11T05:57:28;3.20;;;2.67;;
7493;SDS011;3788;49.902;8.590;2022-08-11T05:59:59;3.23;;;2.93;;
7493;SDS011;3788;49.902;8.590;2022-08-11T06:02:38;3.00;;;2.80;;
7493;SDS011;3788;49.902;8.590;2022-08-11T06:05:06;3.23;;;2.93;;
7493;SDS011;3788;49.902;8.590;2022-08-11T06:07:34;4.03;;;2.73;;
7493;SDS011;3788;49.902;8.590;2022-08-11T06:10:01;4.43;;;3.03;;
7493;SDS011;3788;49.902;8.590;2022-08-11T06:12:29;2.90;;;2.70;;
7493;SDS011;3788;49.902;8.590;2022-08-11T06:14:59;3.13;;;2.90;;
7493;SDS011;3788;49.902;8.590;2022-08-11T06:17:30;4.10;;;3.20;;
7493;SDS011;3788;49.902;8.590;2022-08-11T06:20:00;3.90;;;3.10;;
7493;SDS011;3788;49.902;8.590;2022-08-11T06:22:29;6.93;;;3.87;;
7493;SDS011;3788;49.902;8.590;2022-08-11T06:24:57;2.83;;;2.63;;
7493;SDS011;3788;49.902;8.590;2022-08-11T06:27:28;3.53;;;3.07;;
7493;SDS011;3788;49.902;8.590;2022-08-11T06:29:56;3.50;;;2.70;;
7493;SDS011;3788;49.902;8.590;2022-08-11T06:32:26;3.33;;;3.00;;
7493;SDS011;3788;49.902;8.590;2022-08-11T06:35:02;3.67;;;2.70;;
7493;SDS011;3788;49.902;8.590;2022-08-11T06:37:47;3.30;;;3.00;;
7493;SDS011;3788;49.902;8.590;2022-08-11T06:40:32;3.10;;;2.80;;
7493;SDS011;3788;49.902;8.590;2022-08-11T06:43:05;3.03;;;2.73;;
7493;SDS011;3788;49.902;8.590;2022-08-11T06:45:46;3.07;;;2.83;;
7493;SDS011;3788;49.902;8.590;2022-08-11T06:48:18;3.50;;;3.20;;
7493;SDS011;3788;49.902;8.590;2022-08-11T06:50:48;3.20;;;2.77;;
7493;SDS011;3788;49.902;8.590;2022-08-11T06:53:34;2.67;;;2.40;;
7493;SDS011;3788;49.902;8.590;2022-08-11T06:56:04;2.57;;;2.37;;
7493;SDS011;3788;49.902;8.590;2022-08-11T06:58:50;3.60;;;2.60;;
7493;SDS011;3788;49.902;8.590;2022-08-11T07:01:40;3.00;;;2.60;;
7493;SDS011;3788;49.902;8.590;2022-08-11T07:04:13;4.00;;;2.90;;
7493;SDS011;3788;49.902;8.590;2022-08-11T07:06:56;3.20;;;2.90;;
7493;SDS011;3788;49.902;8.590;2022-08-11T07:10:01;2.50;;;2.30;;
7493;SDS011;3788;49.902;8.590;2022-08-11T07:12:55;2.40;;;2.20;;
7493;SDS011;3788;49.902;8.590;2022-08-11T07:15:41;3.00;;;2.70;;
7493;SDS011;3788;49.902;8.590;2022-08-11T07:18:11;2.50;;;2.30;;
7493;SDS011;3788;49.902;8.590;2022-08-11T07:21:06;3.50;;;2.50;;
7493;SDS011;3788;49.902;8.590;2022-08-11T07:23:54;2.57;;;2.37;;
7493;SDS011;3788;49.902;8.590;2022-08-11T07:26:39;3.47;;;2.47;;
7493;SDS011;3788;49.902;8.590;2022-08-11T07:29:30;4.30;;;2.87;;
7493;SDS011;3788;49.902;8.590;2022-08-11T07:31:58;3.23;;;2.80;;
7493;SDS011;3788;49.902;8.590;2022-08-11T07:34:35;2.80;;;2.60;;
7493;SDS011;3788;49.902;8.590;2022-08-11T07:37:07;2.50;;;2.30;;
7493;SDS011;3788;49.902;8.590;2022-08-11T07:39:36;3.37;;;2.50;;
7493;SDS011;3788;49.902;8.590;2022-08-11T07:42:05;2.63;;;2.43;;
7493;SDS011;3788;49.902;8.590;2022-08-11T07:44:33;2.57;;;2.37;;
7493;SDS011;3788;49.902;8.590;2022-08-11T07:47:22;2.90;;;2.60;;
7493;SDS011;3788;49.902;8.590;2022-08-11T07:50:09;4.13;;;2.57;;
7493;SDS011;3788;49.902;8.590;2022-08-11T07:52:54;3.00;;;2.50;;
7493;SDS011;3788;49.902;8.590;2022-08-11T07:55:21;2.97;;;2.10;;
7493;SDS011;3788;49.902;8.590;2022-08-11T07:57:50;2.50;;;2.30;;
7493;SDS011;3788;49.902;8.590;2022-08-11T08:00:35;3.13;;;2.20;;
7493;SDS011;3788;49.902;8.590;2022-08-11T08:03:21;2.70;;;2.10;;
7493;SDS011;3788;49.902;8.590;2022-08-11T08:06:10;2.93;;;2.33;;
7493;SDS011;3788;49.902;8.590;2022-08-11T08:08:55;4.53;;;2.43;;
7493;SDS011;3788;49.902;8.590;2022-08-11T08:11:40;2.77;;;2.30;;
7493;SDS011;3788;49.902;8.590;2022-08-11T08:14:27;2.97;;;2.20;;
7493;SDS011;3788;49.902;8.590;2022-08-11T08:17:11;2.33;;;2.13;;
7493;SDS011;3788;49.902;8.590;2022-08-11T08:19:57;2.43;;;2.23;;
7493;SDS011;3788;49.902;8.590;2022-08-11T08:22:25;2.20;;;2.10;;
7493;SDS011;3788;49.902;8.590;2022-08-11T08:24:52;3.03;;;2.60;;
7493;SDS011;3788;49.902;8.590;2022-08-11T08:27:21;2.53;;;2.33;;
7493;SDS011;3788;49.902;8.590;2022-08-11T08:29:49;4.05;;;2.30;;
7493;SDS011;3788;49.902;8.590;2022-08-11T08:32:36;2.35;;;2.22;;
7493;SDS011;3788;49.902;8.590;2022-08-11T08:35:04;2.10;;;2.00;;
7493;SDS011;3788;49.902;8.590;2022-08-11T08:37:36;2.65;;;1.95;;
7493;SDS011;3788;49.902;8.590;2022-08-11T08:40:07;2.40;;;2.20;;
7493;SDS011;3788;49.902;8.590;2022-08-11T08:42:39;3.35;;;2.55;;
7493;SDS011;3788;49.902;8.590;2022-08-11T08:45:11;3.22;;;2.00;;
7493;SDS011;3788;49.902;8.590;2022-08-11T08:47:40;2.70;;;2.50;;
7493;SDS011;3788;49.902;8.590;2022-08-11T08:50:12;3.65;;;2.63;;
7493;SDS011;3788;49.902;8.590;2022-08-11T08:52:46;2.55;;;2.45;;
7493;SDS011;3788;49.902;8.590;2022-08-11T08:55:22;2.53;;;2.33;;
7493;SDS011;3788;49.902;8.590;2022-08-11T08:57:50;2.03;;;1.92;;
7493;SDS011;3788;49.902;8.590;2022-08-11T09:00:22;2.30;;;2.20;;
7493;SDS011;3788;49.902;8.590;2022-08-11T09:02:49;2.20;;;2.10;;
7493;SDS011;3788;49.902;8.590;2022-08-11T09:05:17;2.20;;;2.10;;
7493;SDS011;3788;49.902;8.590;2022-08-11T09:07:46;2.90;;;2.40;;
7493;SDS011;3788;49.902;8.590;2022-08-11T09:10:17;2.35;;;2.15;;
7493;SDS011;3788;49.902;8.590;2022-08-11T09:12:45;2.17;;;2.08;;
7493;SDS011;3788;49.902;8.590;2022-08-11T09:15:13;2.17;;;2.08;;
7493;SDS011;3788;49.902;8.590;2022-08-11T09:17:42;3.08;;;2.30;;
7493;SDS011;3788;49.902;8.590;2022-08-11T09:20:11;2.10;;;2.00;;
7493;SDS011;3788;49.902;8.590;2022-08-11T09:22:43;2.55;;;2.15;;
7493;SDS011;3788;49.902;8.590;2022-08-11T09:25:31;2.10;;;1.98;;
7493;SDS011;3788;49.902;8.590;2022-08-11T09:28:17;2.05;;;1.95;;
7493;SDS011;3788;49.902;8.590;2022-08-11T09:30:46;5.57;;;2.30;;
7493;SDS011;3788;49.902;8.590;2022-08-11T09:33:17;2.83;;;2.10;;
7493;SDS011;3788;49.902;8.590;2022-08-11T09:35:45;2.30;;;2.10;;
7493;SDS011;3788;49.902;8.590;2022-08-11T09:38:14;3.88;;;2.17;;
7493;SDS011;3788;49.902;8.590;2022-08-11T09:41:02;2.42;;;2.10;;
7493;SDS011;3788;49.902;8.590;2022-08-11T09:43:30;2.20;;;2.10;;
7493;SDS011;3788;49.902;8.590;2022-08-11T09:46:16;2.30;;;2.10;;
7493;SDS011;3788;49.902;8.590;2022-08-11T09:48:50;2.92;;;1.92;;
7493;SDS011;3788;49.902;8.590;2022-08-11T09:51:21;1.77;;;1.67;;
7493;SDS011;3788;49.902;8.590;2022-08-11T09:53:49;2.40;;;2.20;;
7493;SDS011;3788;49.902;8.590;2022-08-11T09:56:18;2.15;;;2.05;;
7493;SDS011;3788;49.902;8.590;2022-08-11T09:59:04;2.53;;;2.30;;
7493;SDS011;3788;49.902;8.590;2022-08-11T10:01:33;2.63;;;2.42;;
7493;SDS011;3788;49.902;8.590;2022-08-11T10:04:08;2.67;;;2.05;;
7493;SDS011;3788;49.902;8.590;2022-08-11T10:06:42;2.70;;;2.50;;
7493;SDS011;3788;49.902;8.590;2022-08-11T10:09:35;4.18;;;2.20;;
7493;SDS011;3788;49.902;8.590;2022-08-11T10:12:07;2.15;;;2.03;;
7493;SDS011;3788;49.902;8.590;2022-08-11T10:14:36;3.00;;;2.20;;
7493;SDS011;3788;49.902;8.590;2022-08-11T10:17:26;2.25;;;2.15;;
7493;SDS011;3788;49.902;8.590;2022-08-11T10:19:57;2.65;;;2.45;;
7493;SDS011;3788;49.902;8.590;2022-08-11T10:22:27;2.58;;;2.10;;
7493;SDS011;3788;49.902;8.590;2022-08-11T10:25:12;2.53;;;2.33;;
7493;SDS011;3788;49.902;8.590;2022-08-11T10:27:59;4.40;;;2.47;;
7493;SDS011;3788;49.902;8.590;2022-08-11T10:30:29;2.50;;;2.30;;
7493;SDS011;3788;49.902;8.590;2022-08-11T10:33:13;2.03;;;1.92;;
7493;SDS011;3788;49.902;8.590;2022-08-11T10:36:01;2.35;;;2.10;;
7493;SDS011;3788;49.902;8.590;2022-08-11T10:38:30;2.63;;;2.42;;
7493;SDS011;3788;49.902;8.590;2022-08-11T10:40:58;2.33;;;2.13;;
7493;SDS011;3788;49.902;8.590;2022-08-11T10:43:45;2.40;;;2.20;;
7493;SDS011;3788;49.902;8.590;2022-08-11T10:46:12;2.58;;;2.38;;
7493;SDS011;3788;49.902;8.590;2022-08-11T10:48:57;3.75;;;2.65;;
7493;SDS011;3788;49.902;8.590;2022-08-11T10:51:25;2.72;;;2.20;;
7493;SDS011;3788;49.902;8.590;2022-08-11T10:54:10;2.73;;;2.40;;
7493;SDS011;3788;49.902;8.590;2022-08-11T10:56:57;3.85;;;2.25;;
7493;SDS011;3788;49.902;8.590;2022-08-11T10:59:44;2.37;;;2.10;;
7493;SDS011;3788;49.902;8.590;2022-08-11T11:02:12;2.70;;;2.27;;
7493;SDS011;3788;49.902;8.590;2022-08-11T11:04:45;2.80;;;2.60;;
7493;SDS011;3788;49.902;8.590;2022-08-11T11:07:25;2.50;;;2.30;;
7493;SDS011;3788;49.902;8.590;2022-08-11T11:10:01;2.57;;;2.37;;
7493;SDS011;3788;49.902;8.590;2022-08-11T11:12:31;3.00;;;2.80;;
7493;SDS011;3788;49.902;8.590;2022-08-11T11:15:19;4.33;;;2.40;;
7493;SDS011;3788;49.902;8.590;2022-08-11T11:18:05;2.33;;;2.10;;
7493;SDS011;3788;49.902;8.590;2022-08-11T11:20:38;2.77;;;2.47;;
7493;SDS011;3788;49.902;8.590;2022-08-11T11:23:09;2.60;;;2.40;;
7493;SDS011;3788;49.902;8.590;2022-08-11T11:25:48;2.43;;;2.23;;
7493;SDS011;3788;49.902;8.590;2022-08-11T11:28:44;5.23;;;2.57;;
7493;SDS011;3788;49.902;8.590;2022-08-11T11:31:26;2.77;;;2.57;;
7493;SDS011;3788;49.902;8.590;2022-08-11T11:34:08;3.97;;;2.47;;
7493;SDS011;3788;49.902;8.590;2022-08-11T11:36:44;2.90;;;2.67;;
7493;SDS011;3788;49.902;8.590;2022-08-11T11:39:15;4.03;;;2.83;;
7493;SDS011;3788;49.902;8.590;2022-08-11T11:41:43;2.80;;;2.60;;
7493;SDS011;3788;49.902;8.590;2022-08-11T11:44:10;2.93;;;2.73;;
7493;SDS011;3788;49.902;8.590;2022-08-11T11:46:40;3.67;;;2.80;;
7493;SDS011;3788;49.902;8.590;2022-08-11T11:49:09;2.83;;;2.63;;
7493;SDS011;3788;49.902;8.590;2022-08-11T11:51:37;3.67;;;2.30;;
7493;SDS011;3788;49.902;8.590;2022-08-11T11:54:04;2.93;;;2.70;;
7493;SDS011;3788;49.902;8.590;2022-08-11T11:56:31;2.70;;;2.50;;
7493;SDS011;3788;49.902;8.590;2022-08-11T11:58:59;2.93;;;2.73;;
7493;SDS011;3788;49.902;8.590;2022-08-11T12:01:46;3.20;;;2.90;;
7493;SDS011;3788;49.902;8.590;2022-08-11T12:04:13;2.53;;;2.43;;
7493;SDS011;3788;49.902;8.590;2022-08-11T12:06:42;3.70;;;2.63;;
7493;SDS011;3788;49.902;8.590;2022-08-11T12:09:09;2.70;;;2.50;;
7493;SDS011;3788;49.902;8.590;2022-08-11T12:11:39;4.57;;;2.73;;
7493;SDS011;3788;49.902;8.590;2022-08-11T12:14:24;2.83;;;2.63;;
7493;SDS011;3788;49.902;8.590;2022-08-11T12:16:54;3.73;;;3.07;;
7493;SDS011;3788;49.902;8.590;2022-08-11T12:19:22;2.90;;;2.60;;
7493;SDS011;3788;49.902;8.590;2022-08-11T12:21:52;4.30;;;2.67;;
7493;SDS011;3788;49.902;8.590;2022-08-11T12:24:38;3.20;;;2.60;;
7493;SDS011;3788;49.902;8.590;2022-08-11T12:27:22;3.20;;;2.90;;
7493;SDS011;3788;49.902;8.590;2022-08-11T12:29:52;3.73;;;2.60;;
7493;SDS011;3788;49.902;8.590;2022-08-11T12:32:23;2.80;;;2.60;;
7493;SDS011;3788;49.902;8.590;2022-08-11T12:34:52;2.80;;;2.60;;
7493;SDS011;3788;49.902;8.590;2022-08-11T12:37:22;2.80;;;2.60;;
7493;SDS011;3788;49.902;8.590;2022-08-11T12:39:56;2.47;;;2.23;;
7493;SDS011;3788;49.902;8.590;2022-08-11T12:42:45;3.20;;;2.90;;
7493;SDS011;3788;49.902;8.590;2022-08-11T12:45:31;5.23;;;2.73;;
7493;SDS011;3788;49.902;8.590;2022-08-11T12:48:02;3.10;;;2.67;;
7493;SDS011;3788;49.902;8.590;2022-08-11T12:50:50;3.40;;;2.77;;
7493;SDS011;3788;49.902;8.590;2022-08-11T12:53:40;4.43;;;2.43;;
7493;SDS011;3788;49.902;8.590;2022-08-11T12:56:12;2.70;;;2.50;;
7493;SDS011;3788;49.902;8.590;2022-08-11T12:58:57;2.53;;;2.33;;
7493;SDS011;3788;49.902;8.590;2022-08-11T13:02:02;2.40;;;2.20;;
7493;SDS011;3788;49.902;8.590;2022-08-11T13:04:47;2.57;;;2.37;;
7493;SDS011;3788;49.902;8.590;2022-08-11T13:07:23;2.50;;;2.30;;
7493;SDS011;3788;49.902;8.590;2022-08-11T13:09:51;4.07;;;2.50;;
7493;SDS011;3788;49.902;8.590;2022-08-11T13:12:19;3.03;;;2.73;;
7493;SDS011;3788;49.902;8.590;2022-08-11T13:15:06;3.20;;;2.70;;
7493;SDS011;3788;49.902;8.590;2022-08-11T13:17:35;2.57;;;2.37;;
7493;SDS011;3788;49.902;8.590;2022-08-11T13:20:06;2.53;;;2.30;;
7493;SDS011;3788;49.902;8.590;2022-08-11T13:22:35;3.20;;;2.33;;
7493;SDS011;3788;49.902;8.590;2022-08-11T13:25:02;2.97;;;2.40;;
7493;SDS011;3788;49.902;8.590;2022-08-11T13:27:31;5.00;;;2.80;;
7493;SDS011;3788;49.902;8.590;2022-08-11T13:29:58;2.90;;;2.60;;
7493;SDS011;3788;49.902;8.590;2022-08-11T13:32:43;2.80;;;2.60;;
7493;SDS011;3788;49.902;8.590;2022-08-11T13:35:12;5.17;;;2.60;;
7493;SDS011;3788;49.902;8.590;2022-08-11T13:37:40;2.37;;;2.17;;
7493;SDS011;3788;49.902;8.590;2022-08-11T13:40:10;2.77;;;2.53;;
7493;SDS011;3788;49.902;8.590;2022-08-11T13:42:37;3.33;;;2.53;;
7493;SDS011;3788;49.902;8.590;2022-08-11T13:45:06;2.23;;;2.13;;
7493;SDS011;3788;49.902;8.590;2022-08-11T13:47:34;2.60;;;2.40;;
7493;SDS011;3788;49.902;8.590;2022-08-11T13:50:02;2.47;;;2.20;;
7493;SDS011;3788;49.902;8.590;2022-08-11T13:52:32;2.37;;;2.17;;
7493;SDS011;3788;49.902;8.590;2022-08-11T13:55:00;2.70;;;2.50;;
7493;SDS011;3788;49.902;8.590;2022-08-11T13:57:29;3.33;;;2.33;;
7493;SDS011;3788;49.902;8.590;2022-08-11T13:59:58;2.30;;;2.20;;
7493;SDS011;3788;49.902;8.590;2022-08-11T14:02:35;2.53;;;2.30;;
7493;SDS011;3788;49.902;8.590;2022-08-11T14:05:06;2.53;;;2.37;;
7493;SDS011;3788;49.902;8.590;2022-08-11T14:07:38;2.40;;;2.20;;
7493;SDS011;3788;49.902;8.590;2022-08-11T14:10:10;3.33;;;2.23;;
7493;SDS011;3788;49.902;8.590;2022-08-11T14:12:38;3.07;;;2.30;;
7493;SDS011;3788;49.902;8.590;2022-08-11T14:15:22;2.20;;;2.00;;
7493;SDS011;3788;49.902;8.590;2022-08-11T14:17:53;2.13;;;2.00;;
7493;SDS011;3788;49.902;8.590;2022-08-11T14:20:27;3.20;;;2.30;;
7493;SDS011;3788;49.902;8.590;2022-08-11T14:23:18;2.07;;;1.80;;
7493;SDS011;3788;49.902;8.590;2022-08-11T14:25:48;2.47;;;2.00;;
7493;SDS011;3788;49.902;8.590;2022-08-11T14:28:33;3.20;;;2.37;;
7493;SDS011;3788;49.902;8.590;2022-08-11T14:31:00;2.60;;;2.40;;
7493;SDS011;3788;49.902;8.590;2022-08-11T14:33:29;2.50;;;2.30;;
7493;SDS011;3788;49.902;8.590;2022-08-11T14:35:58;4.60;;;2.50;;
7493;SDS011;3788;49.902;8.590;2022-08-11T14:38:28;2.47;;;2.00;;
7493;SDS011;3788;49.902;8.590;2022-08-11T14:40:55;2.53;;;2.33;;
7493;SDS011;3788;49.902;8.590;2022-08-11T14:43:39;2.20;;;2.07;;
7493;SDS011;3788;49.902;8.590;2022-08-11T14:46:25;2.43;;;2.13;;
7493;SDS011;3788;49.902;8.590;2022-08-11T14:49:09;2.90;;;2.10;;
7493;SDS011;3788;49.902;8.590;2022-08-11T14:51:38;2.20;;;2.00;;
7493;SDS011;3788;49.902;8.590;2022-08-11T14:54:07;2.00;;;1.90;;
7493;SDS011;3788;49.902;8.590;2022-08-11T14:56:52;2.23;;;2.03;;
7493;SDS011;3788;49.902;8.590;2022-08-11T14:59:20;2.10;;;1.90;;
7493;SDS011;3788;49.902;8.590;2022-08-11T15:01:47;2.13;;;1.90;;
7493;SDS011;3788;49.902;8.590;2022-08-11T15:04:32;2.23;;;2.03;;
7493;SDS011;3788;49.902;8.590;2022-08-11T15:06:59;2.33;;;2.13;;
7493;SDS011;3788;49.902;8.590;2022-08-11T15:09:28;2.70;;;2.50;;
7493;SDS011;3788;49.902;8.590;2022-08-11T15:11:55;2.50;;;2.17;;
7493;SDS011;3788;49.902;8.590;2022-08-11T15:14:34;2.27;;;2.17;;
7493;SDS011;3788;49.902;8.590;2022-08-11T15:17:19;2.40;;;2.00;;
7493;SDS011;3788;49.902;8.590;2022-08-11T15:19:47;2.90;;;2.20;;
7493;SDS011;3788;49.902;8.590;2022-08-11T15:22:29;2.50;;;2.30;;
7493;SDS011;3788;49.902;8.590;2022-08-11T15:25:15;2.60;;;2.40;;
7493;SDS011;3788;49.902;8.590;2022-08-11T15:27:43;2.00;;;1.90;;
7493;SDS011;3788;49.902;8.590;2022-08-11T15:30:31;2.03;;;1.93;;
7493;SDS011;3788;49.902;8.590;2022-08-11T15:33:30;2.20;;;2.00;;
7493;SDS011;3788;49.902;8.590;2022-08-11T15:36:17;4.27;;;2.70;;
7493;SDS011;3788;49.902;8.590;2022-08-11T15:39:05;2.17;;;2.07;;
7493;SDS011;3788;49.902;8.590;2022-08-11T15:41:40;3.13;;;2.30;;
7493;SDS011;3788;49.902;8.590;2022-08-11T15:44:30;2.37;;;2.03;;
7493;SDS011;3788;49.902;8.590;2022-08-11T15:47:17;2.27;;;2.00;;
7493;SDS011;3788;49.902;8.590;2022-08-11T15:49:49;2.70;;;2.50;;
7493;SDS011;3788;49.902;8.590;2022-08-11T15:52:18;3.30;;;2.27;;
7493;SDS011;3788;49.902;8.590;2022-08-11T15:54:48;2.73;;;2.27;;
7493;SDS011;3788;49.902;8.590;2022-08-11T15:57:17;2.20;;;2.00;;
7493;SDS011;3788;49.902;8.590;2022-08-11T15:59:59;2.50;;;2.40;;
7493;SDS011;3788;49.902;8.590;2022-08-11T16:02:46;2.23;;;2.00;;
7493;SDS011;3788;49.902;8.590;2022-08-11T16:05:33;3.47;;;2.40;;
7493;SDS011;3788;49.902;8.590;2022-08-11T16:08:00;2.03;;;1.93;;
7493;SDS011;3788;49.902;8.590;2022-08-11T16:10:27;2.67;;;2.27;;
7493;SDS011;3788;49.902;8.590;2022-08-11T16:12:58;2.43;;;2.30;;
7493;SDS011;3788;49.902;8.590;2022-08-11T16:15:41;2.67;;;2.47;;
7493;SDS011;3788;49.902;8.590;2022-08-11T16:18:30;2.30;;;2.10;;
7493;SDS011;3788;49.902;8.590;2022-08-11T16:21:06;2.27;;;2.07;;
7493;SDS011;3788;49.902;8.590;2022-08-11T16:23:36;2.17;;;1.90;;
7493;SDS011;3788;49.902;8.590;2022-08-11T16:26:05;2.10;;;2.00;;
7493;SDS011;3788;49.902;8.590;2022-08-11T16:28:38;2.23;;;2.03;;
7493;SDS011;3788;49.902;8.590;2022-08-11T16:31:08;2.10;;;1.90;;
7493;SDS011;3788;49.902;8.590;2022-08-11T16:33:45;2.60;;;2.40;;
7493;SDS011;3788;49.902;8.590;2022-08-11T16:36:15;3.73;;;2.10;;
7493;SDS011;3788;49.902;8.590;2022-08-11T16:39:01;2.60;;;2.40;;
7493;SDS011;3788;49.902;8.590;2022-08-11T16:41:31;2.00;;;1.90;;
7493;SDS011;3788;49.902;8.590;2022-08-11T16:44:19;2.80;;;2.17;;
7493;SDS011;3788;49.902;8.590;2022-08-11T16:47:05;4.27;;;2.30;;
7493;SDS011;3788;49.902;8.590;2022-08-11T16:49:33;2.43;;;2.10;;
7493;SDS011;3788;49.902;8.590;2022-08-11T16:52:01;2.30;;;2.07;;
7493;SDS011;3788;49.902;8.590;2022-08-11T16:54:29;2.10;;;2.00;;
7493;SDS011;3788;49.902;8.590;2022-08-11T16:56:58;2.50;;;2.30;;
7493;SDS011;3788;49.902;8.590;2022-08-11T16:59:49;2.50;;;2.13;;
7493;SDS011;3788;49.902;8.590;2022-08-11T17:02:17;2.10;;;2.00;;